createdAt,value
2017-08-17T00:00:47.485Z,18.90
2017-08-17T00:03:15.392Z,18.83
2017-08-17T00:05:43.307Z,18.83
2017-08-17T00:08:11.216Z,18.88
2017-08-17T00:10:39.521Z,18.89
2017-08-17T00:13:07.422Z,18.93
2017-08-17T00:15:35.395Z,18.89
2017-08-17T00:18:03.462Z,18.88
2017-08-17T00:20:31.367Z,18.89
2017-08-17T00:22:59.668Z,18.89
2017-08-17T00:25:27.575Z,18.84
2017-08-17T00:27:55.484Z,18.73
2017-08-17T00:30:24.044Z,18.69
2017-08-17T00:32:51.944Z,18.74
2017-08-17T00:35:20.531Z,18.66
2017-08-17T00:37:48.439Z,18.73
2017-08-17T00:40:16.344Z,18.64
2017-08-17T00:42:44.399Z,18.60
2017-08-17T00:45:12.309Z,18.55
2017-08-17T00:47:40.619Z,18.53
2017-08-17T00:50:08.535Z,18.48
2017-08-17T00:52:36.444Z,18.45
2017-08-17T00:55:04.367Z,18.43
2017-08-17T00:57:32.281Z,18.42
2017-08-17T01:00:00.190Z,18.32
2017-08-17T01:02:28.103Z,18.35
2017-08-17T01:04:56.020Z,18.35
2017-08-17T01:07:23.919Z,18.36
2017-08-17T01:09:52.592Z,18.25
2017-08-17T01:12:20.501Z,18.26
2017-08-17T01:14:48.411Z,18.20
2017-08-17T01:17:16.337Z,18.24
2017-08-17T01:19:44.235Z,18.17
2017-08-17T01:22:12.156Z,18.14
2017-08-17T01:24:40.443Z,18.18
2017-08-17T01:27:08.364Z,18.14
2017-08-17T01:29:36.264Z,18.09
2017-08-17T01:32:04.213Z,18.09
2017-08-17T01:34:32.111Z,18.03
2017-08-17T01:37:00.533Z,18.00
2017-08-17T01:39:28.445Z,17.93
2017-08-17T01:41:56.351Z,17.88
2017-08-17T01:44:24.268Z,17.86
2017-08-17T01:46:52.176Z,17.85
2017-08-17T01:49:20.097Z,17.81
2017-08-17T01:51:47.995Z,17.76
2017-08-17T01:54:16.310Z,17.69
2017-08-17T01:56:44.202Z,17.71
2017-08-17T01:59:12.109Z,17.71
2017-08-17T02:01:40.427Z,17.72
2017-08-17T02:04:08.544Z,17.71
2017-08-17T02:06:36.443Z,17.79
2017-08-17T02:09:04.365Z,17.82
2017-08-17T02:11:32.274Z,17.84
2017-08-17T02:14:00.590Z,17.85
2017-08-17T02:16:28.620Z,17.79
2017-08-17T02:18:56.919Z,17.73
2017-08-17T02:21:24.831Z,17.76
2017-08-17T02:23:52.767Z,17.83
2017-08-17T02:26:20.679Z,17.76
2017-08-17T02:28:48.586Z,17.74
2017-08-17T02:31:16.489Z,17.73
2017-08-17T02:33:44.415Z,17.72
2017-08-17T02:36:12.707Z,17.69
2017-08-17T02:38:40.631Z,17.70
2017-08-17T02:41:08.540Z,17.68
2017-08-17T02:43:36.737Z,17.70
2017-08-17T02:46:04.635Z,17.72
2017-08-17T02:48:32.569Z,17.64
2017-08-17T02:51:00.475Z,17.64
2017-08-17T02:53:28.380Z,17.62
2017-08-17T02:55:56.692Z,17.59
2017-08-17T02:58:24.600Z,17.53
2017-08-17T03:00:52.522Z,17.50
2017-08-17T03:03:20.423Z,17.54
2017-08-17T03:05:48.337Z,17.57
2017-08-17T03:08:16.650Z,17.65
2017-08-17T03:10:44.955Z,17.59
2017-08-17T03:13:12.869Z,17.56
2017-08-17T03:15:40.771Z,17.56
2017-08-17T03:20:41.933Z,17.48
2017-08-17T03:23:09.843Z,17.42
2017-08-17T03:25:38.142Z,17.39
2017-08-17T03:28:06.180Z,17.33
2017-08-17T03:30:34.090Z,17.38
2017-08-17T03:33:02.007Z,17.35
2017-08-17T03:35:29.925Z,17.37
2017-08-17T03:37:57.836Z,17.33
2017-08-17T03:40:25.756Z,17.39
2017-08-17T03:42:54.065Z,17.34
2017-08-17T03:45:22.380Z,17.31
2017-08-17T03:47:50.287Z,17.36
2017-08-17T03:50:18.187Z,17.28
2017-08-17T03:52:46.110Z,17.23
2017-08-17T03:55:14.416Z,17.25
2017-08-17T03:57:42.336Z,17.28
2017-08-17T04:00:10.235Z,17.27
2017-08-17T04:02:38.156Z,17.34
2017-08-17T04:05:06.067Z,17.31
2017-08-17T04:07:34.657Z,17.37
2017-08-17T04:10:02.559Z,17.37
2017-08-17T04:12:30.651Z,17.34
2017-08-17T04:14:58.556Z,17.35
2017-08-17T04:17:26.867Z,17.35
2017-08-17T04:19:54.775Z,17.39
2017-08-17T04:22:22.681Z,17.42
2017-08-17T04:24:50.600Z,17.48
2017-08-17T04:27:18.512Z,17.51
2017-08-17T04:29:46.815Z,17.57
2017-08-17T04:32:15.625Z,17.64
2017-08-17T04:34:43.540Z,17.89
2017-08-17T04:37:11.831Z,18.18
2017-08-17T04:39:39.732Z,18.41
2017-08-17T04:42:07.652Z,18.80
2017-08-17T04:44:35.938Z,19.07
2017-08-17T04:47:04.249Z,19.34
2017-08-17T04:49:32.160Z,19.67
2017-08-17T04:52:00.084Z,20.15
2017-08-17T04:54:27.988Z,20.53
2017-08-17T05:00:20.968Z,21.17
2017-08-17T05:02:48.888Z,21.41
2017-08-17T05:05:16.788Z,22.09
2017-08-17T05:07:46.928Z,22.46
2017-08-17T05:10:14.836Z,22.42
2017-08-17T05:12:42.748Z,22.57
2017-08-17T05:15:11.049Z,22.33
2017-08-17T05:17:38.943Z,22.75
2017-08-17T05:20:07.245Z,23.10
2017-08-17T05:22:35.307Z,23.78
2017-08-17T05:25:03.207Z,23.93
2017-08-17T05:27:31.117Z,23.89
2017-08-17T05:29:59.428Z,24.37
2017-08-17T05:32:27.353Z,24.81
2017-08-17T05:34:55.265Z,24.36
2017-08-17T05:37:23.185Z,24.37
2017-08-17T05:39:51.088Z,24.30
2017-08-17T05:42:19.440Z,24.52
2017-08-17T05:44:47.352Z,24.69
2017-08-17T05:47:15.256Z,25.25
2017-08-17T05:49:43.163Z,25.89
2017-08-17T05:52:11.468Z,25.87
2017-08-17T05:54:39.401Z,26.00
2017-08-17T05:57:07.687Z,26.18
2017-08-17T05:59:35.605Z,26.18
2017-08-17T06:02:03.508Z,26.39
2017-08-17T06:04:31.575Z,26.06
2017-08-17T06:06:59.477Z,26.27
2017-08-17T06:09:27.379Z,26.35
2017-08-17T06:11:55.287Z,26.54
2017-08-17T06:14:23.205Z,26.62
2017-08-17T06:16:51.110Z,26.69
2017-08-17T06:19:19.025Z,26.62
2017-08-17T06:21:46.926Z,27.09
2017-08-17T06:24:14.841Z,27.13
2017-08-17T06:26:43.142Z,27.14
2017-08-17T06:29:11.052Z,27.77
2017-08-17T06:31:39.124Z,27.92
2017-08-17T06:34:07.040Z,28.42
2017-08-17T06:36:35.340Z,28.54
2017-08-17T06:39:03.264Z,28.94
2017-08-17T06:41:31.163Z,28.65
2017-08-17T06:43:59.071Z,29.42
2017-08-17T06:46:26.975Z,29.83
2017-08-17T06:48:55.292Z,29.64
2017-08-17T06:51:23.191Z,29.69
2017-08-17T06:53:51.282Z,30.42
2017-08-17T06:56:19.193Z,30.55
2017-08-17T06:58:47.100Z,30.67
2017-08-17T07:01:15.016Z,30.95
2017-08-17T07:03:43.311Z,30.61
2017-08-17T07:06:11.219Z,30.88
2017-08-17T07:08:39.114Z,32.27
2017-08-17T07:11:07.433Z,32.56
2017-08-17T07:13:35.352Z,32.26
2017-08-17T07:16:03.272Z,31.85
2017-08-17T07:18:31.171Z,32.42
2017-08-17T07:20:59.091Z,31.92
2017-08-17T07:23:26.987Z,32.07
2017-08-17T07:25:55.083Z,31.99
2017-08-17T07:28:22.982Z,32.17
2017-08-17T07:30:51.279Z,32.34
2017-08-17T07:33:19.191Z,32.08
2017-08-17T07:35:47.100Z,31.83
2017-08-17T07:38:15.412Z,32.26
2017-08-17T07:40:43.708Z,32.53
2017-08-17T07:43:11.629Z,32.61
2017-08-17T07:45:39.544Z,32.74
2017-08-17T07:48:07.459Z,32.98
2017-08-17T07:50:35.755Z,32.36
2017-08-17T07:53:04.233Z,32.45
2017-08-17T07:55:32.131Z,32.37
2017-08-17T07:58:00.044Z,32.38
2017-08-17T08:00:27.960Z,32.00
2017-08-17T08:02:55.923Z,31.75
2017-08-17T08:05:23.848Z,32.23
2017-08-17T08:07:51.761Z,32.21
2017-08-17T08:10:19.700Z,31.71
2017-08-17T08:12:47.612Z,31.91
2017-08-17T08:15:15.529Z,31.76
2017-08-17T08:17:43.440Z,32.23
2017-08-17T08:20:11.547Z,32.13
2017-08-17T08:22:39.467Z,31.79
2017-08-17T08:25:07.387Z,31.76
2017-08-17T08:27:35.308Z,32.60
2017-08-17T08:30:03.215Z,32.41
2017-08-17T08:32:31.133Z,32.25
2017-08-17T08:34:59.437Z,32.73
2017-08-17T08:37:27.547Z,32.56
2017-08-17T08:39:55.455Z,32.29
2017-08-17T08:42:23.361Z,32.26
2017-08-17T08:44:51.271Z,32.03
2017-08-17T08:47:19.594Z,32.84
2017-08-17T08:49:47.502Z,31.65
2017-08-17T08:52:15.398Z,32.15
2017-08-17T08:54:44.048Z,31.94
2017-08-17T08:57:11.951Z,31.27
2017-08-17T08:59:40.245Z,31.45
2017-08-17T09:02:08.163Z,31.27
2017-08-17T09:04:36.072Z,32.00
2017-08-17T09:07:04.388Z,32.14
2017-08-17T09:09:32.297Z,31.18
2017-08-17T09:12:00.203Z,31.67
2017-08-17T09:14:28.109Z,31.85
2017-08-17T09:16:56.392Z,32.91
2017-08-17T09:19:24.309Z,33.11
2017-08-17T09:21:52.216Z,32.74
2017-08-17T09:24:20.313Z,32.65
2017-08-17T09:26:48.211Z,32.68
2017-08-17T09:29:16.132Z,31.74
2017-08-17T09:31:44.047Z,31.65
2017-08-17T09:34:12.497Z,32.08
2017-08-17T09:36:40.408Z,31.73
2017-08-17T09:39:08.577Z,32.31
2017-08-17T09:41:36.507Z,32.07
2017-08-17T09:44:04.416Z,32.07
2017-08-17T09:46:32.405Z,32.78
2017-08-17T09:49:00.314Z,33.02
2017-08-17T09:51:28.223Z,33.49
2017-08-17T09:53:56.123Z,33.59
2017-08-17T09:56:24.140Z,33.71
2017-08-17T09:58:52.439Z,32.92
2017-08-17T10:01:20.352Z,32.16
2017-08-17T10:03:48.259Z,32.39
2017-08-17T10:06:16.573Z,32.51
2017-08-17T10:08:44.497Z,33.52
2017-08-17T10:11:12.395Z,33.06
2017-08-17T10:13:40.320Z,32.80
2017-08-17T10:16:08.228Z,33.31
2017-08-17T10:18:36.150Z,33.00
2017-08-17T10:21:04.046Z,32.83
2017-08-17T10:23:32.602Z,32.33
2017-08-17T10:26:00.521Z,32.37
2017-08-17T10:28:28.419Z,32.56
2017-08-17T10:30:56.337Z,31.82
2017-08-17T10:33:24.631Z,31.75
2017-08-17T10:35:52.967Z,31.50
2017-08-17T10:38:20.898Z,31.91
2017-08-17T10:40:48.809Z,31.92
2017-08-17T10:43:16.719Z,31.98
2017-08-17T10:45:44.632Z,31.21
2017-08-17T10:48:12.543Z,31.27
2017-08-17T10:50:40.848Z,31.34
2017-08-17T10:53:09.207Z,31.10
2017-08-17T10:55:37.389Z,31.59
2017-08-17T10:58:05.295Z,31.20
2017-08-17T11:00:33.217Z,31.53
2017-08-17T11:03:01.524Z,31.29
2017-08-17T11:05:29.468Z,31.26
2017-08-17T11:07:57.371Z,31.28
2017-08-17T11:10:25.324Z,31.03
2017-08-17T11:12:53.227Z,31.17
2017-08-17T11:15:21.149Z,30.64
2017-08-17T11:17:49.047Z,30.66
2017-08-17T11:20:16.960Z,30.17
2017-08-17T11:22:45.264Z,30.10
2017-08-17T11:25:13.184Z,29.37
2017-08-17T11:27:41.103Z,29.51
2017-08-17T11:30:09.017Z,29.26
2017-08-17T11:32:36.952Z,28.85
2017-08-17T11:35:04.855Z,29.08
2017-08-17T11:37:32.936Z,29.20
2017-08-17T11:40:00.843Z,28.90
2017-08-17T11:42:28.757Z,28.38
2017-08-17T11:44:56.684Z,28.31
2017-08-17T11:47:24.605Z,28.33
2017-08-17T11:49:52.514Z,28.39
2017-08-17T11:52:20.420Z,28.35
2017-08-17T11:54:48.768Z,28.18
2017-08-17T11:57:16.940Z,28.15
2017-08-17T11:59:44.846Z,28.42
2017-08-17T12:02:12.770Z,28.13
2017-08-17T12:04:41.359Z,28.20
2017-08-17T12:07:09.280Z,28.33
2017-08-17T12:09:37.184Z,28.43
2017-08-17T12:12:05.501Z,28.43
2017-08-17T12:14:33.420Z,28.77
2017-08-17T12:17:01.335Z,29.06
2017-08-17T12:19:29.249Z,29.19
2017-08-17T12:21:57.421Z,29.05
2017-08-17T12:24:25.322Z,28.83
2017-08-17T12:26:53.236Z,28.63
2017-08-17T12:29:21.142Z,28.55
2017-08-17T12:31:49.442Z,28.60
2017-08-17T12:34:17.352Z,28.54
2017-08-17T12:36:45.268Z,28.38
2017-08-17T12:39:13.722Z,28.49
2017-08-17T12:41:41.628Z,28.90
2017-08-17T12:44:09.526Z,29.12
2017-08-17T12:46:37.457Z,29.15
2017-08-17T12:49:05.755Z,29.09
2017-08-17T12:51:33.667Z,28.98
2017-08-17T12:54:01.572Z,29.31
2017-08-17T12:56:29.883Z,28.90
2017-08-17T12:58:58.032Z,28.53
2017-08-17T13:01:26.159Z,28.19
2017-08-17T13:03:54.058Z,27.91
2017-08-17T13:06:22.368Z,27.96
2017-08-17T13:08:50.291Z,28.14
2017-08-17T13:11:18.192Z,27.81
2017-08-17T13:13:46.117Z,27.73
2017-08-17T13:16:14.028Z,27.82
2017-08-17T13:18:41.952Z,27.88
2017-08-17T13:21:09.856Z,28.13
2017-08-17T13:23:38.299Z,28.07
2017-08-17T13:26:06.199Z,28.18
2017-08-17T13:28:34.509Z,28.09
2017-08-17T13:31:02.428Z,28.07
2017-08-17T13:33:30.336Z,28.14
2017-08-17T13:35:58.247Z,28.38
2017-08-17T13:38:26.151Z,28.50
2017-08-17T13:40:54.500Z,28.40
2017-08-17T13:43:22.467Z,28.64
2017-08-17T13:45:50.384Z,28.66
2017-08-17T13:48:18.292Z,28.73
2017-08-17T13:50:46.213Z,28.53
2017-08-17T13:53:14.154Z,28.61
2017-08-17T13:55:42.078Z,28.59
2017-08-17T13:58:09.979Z,28.50
2017-08-17T14:00:38.055Z,28.54
2017-08-17T14:03:05.970Z,28.44
2017-08-17T14:05:33.888Z,28.13
2017-08-17T14:08:01.807Z,28.06
2017-08-17T14:10:29.735Z,28.22
2017-08-17T14:12:57.646Z,28.13
2017-08-17T14:15:25.546Z,28.09
2017-08-17T14:17:53.458Z,28.03
2017-08-17T14:20:21.777Z,27.96
2017-08-17T14:22:49.690Z,28.01
2017-08-17T14:25:17.609Z,28.15
2017-08-17T14:27:45.513Z,28.15
2017-08-17T14:30:13.437Z,28.16
2017-08-17T14:32:41.355Z,28.06
2017-08-17T14:35:09.275Z,28.07
2017-08-17T14:37:37.225Z,27.79
2017-08-17T14:40:05.548Z,27.78
2017-08-17T14:42:33.463Z,27.91
2017-08-17T14:45:01.776Z,28.00
2017-08-17T14:47:29.716Z,28.09
2017-08-17T14:49:58.036Z,28.17
2017-08-17T14:52:25.944Z,28.26
2017-08-17T14:54:53.873Z,28.19
2017-08-17T14:57:21.809Z,28.08
2017-08-17T14:59:49.879Z,27.97
2017-08-17T15:02:18.192Z,27.97
2017-08-17T15:04:46.095Z,27.92
2017-08-17T15:07:14.017Z,27.97
2017-08-17T15:09:41.914Z,27.91
2017-08-17T15:12:09.855Z,27.83
2017-08-17T15:14:37.760Z,27.84
2017-08-17T15:17:05.685Z,27.61
2017-08-17T15:19:33.600Z,27.54
2017-08-17T15:22:01.819Z,27.68
2017-08-17T15:24:29.718Z,27.66
2017-08-17T15:26:57.673Z,27.80
2017-08-17T15:29:25.592Z,27.78
2017-08-17T15:31:53.495Z,27.72
2017-08-17T15:34:21.407Z,27.72
2017-08-17T15:36:49.645Z,27.74
2017-08-17T15:39:17.555Z,27.57
2017-08-17T15:41:45.466Z,27.43
2017-08-17T15:44:13.779Z,27.34
2017-08-17T15:46:41.932Z,27.26
2017-08-17T15:49:09.977Z,27.24
2017-08-17T15:51:38.270Z,27.10
2017-08-17T15:54:06.862Z,27.17
2017-08-17T15:56:34.781Z,27.06
2017-08-17T15:59:02.694Z,27.16
2017-08-17T16:01:30.607Z,27.22
2017-08-17T16:03:58.523Z,27.10
2017-08-17T16:06:26.844Z,27.07
2017-08-17T16:08:54.743Z,27.16
2017-08-17T16:11:22.668Z,27.08
2017-08-17T16:13:50.567Z,26.99
2017-08-17T16:16:18.491Z,27.03
2017-08-17T16:18:46.391Z,27.00
2017-08-17T16:21:14.706Z,27.10
2017-08-17T16:23:42.723Z,27.09
2017-08-17T16:26:10.623Z,26.98
2017-08-17T16:28:38.543Z,26.97
2017-08-17T16:31:06.457Z,27.02
2017-08-17T16:33:34.378Z,26.88
2017-08-17T16:36:02.684Z,26.74
2017-08-17T16:38:30.644Z,26.78
2017-08-17T16:40:58.558Z,26.92
2017-08-17T16:43:26.475Z,26.92
2017-08-17T16:45:54.397Z,26.86
2017-08-17T16:48:22.329Z,26.63
2017-08-17T16:50:50.231Z,26.70
2017-08-17T16:53:18.447Z,26.77
2017-08-17T16:55:46.570Z,26.56
2017-08-17T16:58:14.656Z,26.52
2017-08-17T17:00:42.555Z,26.44
2017-08-17T17:03:10.851Z,26.30
2017-08-17T17:05:38.804Z,26.30
2017-08-17T17:08:06.717Z,26.26
2017-08-17T17:10:34.636Z,26.17
2017-08-17T17:13:02.949Z,26.27
2017-08-17T17:15:30.863Z,26.25
2017-08-17T17:17:58.767Z,26.14
2017-08-17T17:20:26.679Z,26.14
2017-08-17T17:22:54.579Z,26.09
2017-08-17T17:25:22.890Z,26.15
2017-08-17T17:27:50.790Z,26.07
2017-08-17T17:30:18.881Z,26.01
2017-08-17T17:32:46.778Z,25.88
2017-08-17T17:35:15.091Z,25.83
2017-08-17T17:37:43.003Z,25.78
2017-08-17T17:40:10.916Z,25.74
2017-08-17T17:42:38.822Z,25.72
2017-08-17T17:45:06.743Z,25.58
2017-08-17T17:47:34.654Z,25.46
2017-08-17T17:50:02.564Z,25.39
2017-08-17T17:52:30.880Z,25.37
2017-08-17T17:54:58.783Z,25.35
2017-08-17T17:57:26.954Z,25.23
2017-08-17T17:59:54.851Z,25.25
2017-08-17T18:02:23.151Z,25.24
2017-08-17T18:04:51.101Z,25.22
2017-08-17T18:07:19.698Z,25.14
2017-08-17T18:09:47.616Z,25.07
2017-08-17T18:12:15.532Z,25.06
2017-08-17T18:14:43.456Z,25.07
2017-08-17T18:17:11.369Z,25.05
2017-08-17T18:19:39.276Z,25.02
2017-08-17T18:22:07.217Z,25.06
2017-08-17T18:24:35.115Z,25.00
2017-08-17T18:27:03.031Z,25.04
2017-08-17T18:29:31.326Z,24.95
2017-08-17T18:31:59.492Z,24.93
2017-08-17T18:34:27.408Z,24.99
2017-08-17T18:36:55.315Z,24.98
2017-08-17T18:39:23.628Z,24.79
2017-08-17T18:41:51.544Z,24.73
2017-08-17T18:44:19.481Z,24.61
2017-08-17T18:46:47.383Z,24.65
2017-08-17T18:49:15.286Z,24.45
2017-08-17T18:51:43.183Z,24.19
2017-08-17T18:54:11.289Z,23.73
2017-08-17T18:56:39.196Z,23.55
2017-08-17T18:59:07.119Z,23.56
2017-08-17T19:01:35.051Z,23.55
2017-08-17T19:04:02.967Z,23.68
2017-08-17T19:06:30.879Z,23.62
2017-08-17T19:08:58.789Z,23.57
2017-08-17T19:11:26.703Z,23.66
2017-08-17T19:13:54.606Z,23.78
2017-08-17T19:16:22.958Z,23.79
2017-08-17T19:18:50.869Z,23.74
2017-08-17T19:21:18.783Z,23.77
2017-08-17T19:23:47.114Z,23.73
2017-08-17T19:26:15.043Z,23.71
2017-08-17T19:28:42.961Z,23.71
2017-08-17T19:31:10.872Z,23.43
2017-08-17T19:33:38.792Z,23.42
2017-08-17T19:36:06.707Z,23.04
2017-08-17T19:38:35.024Z,22.82
2017-08-17T19:41:02.937Z,22.84
2017-08-17T19:43:31.409Z,22.93
2017-08-17T19:45:59.311Z,23.02
2017-08-17T19:48:27.216Z,23.11
2017-08-17T19:50:55.137Z,22.95
2017-08-17T19:53:23.436Z,22.97
2017-08-17T19:55:51.352Z,22.95
2017-08-17T19:58:19.249Z,23.04
2017-08-17T20:00:47.559Z,22.97
2017-08-17T20:03:15.460Z,22.97
2017-08-17T20:05:43.382Z,22.96
2017-08-17T20:08:11.304Z,23.01
2017-08-17T20:10:39.216Z,23.13
2017-08-17T20:13:07.138Z,23.21
2017-08-17T20:15:35.217Z,23.26
2017-08-17T20:18:03.136Z,23.27
2017-08-17T20:20:31.045Z,23.35
2017-08-17T20:22:58.972Z,23.17
2017-08-17T20:25:26.897Z,23.12
2017-08-17T20:27:54.823Z,23.25
2017-08-17T20:30:22.742Z,23.03
2017-08-17T20:32:50.660Z,23.06
2017-08-17T20:35:18.573Z,23.08
2017-08-17T20:37:46.487Z,23.16
2017-08-17T20:40:14.387Z,23.06
2017-08-17T20:42:42.287Z,23.17
2017-08-17T20:45:10.604Z,23.00
2017-08-17T20:47:38.515Z,22.82
2017-08-17T20:50:06.832Z,22.91
2017-08-17T20:52:34.744Z,23.00
2017-08-17T20:55:03.027Z,23.11
2017-08-17T20:57:30.942Z,23.13
2017-08-17T20:59:58.854Z,23.20
2017-08-17T21:02:26.801Z,23.21
2017-08-17T21:04:54.773Z,23.25
2017-08-17T21:07:22.788Z,23.16
2017-08-17T21:09:50.709Z,23.29
2017-08-17T21:12:18.614Z,23.20
2017-08-17T21:14:46.530Z,23.15
2017-08-17T21:17:14.985Z,23.06
2017-08-17T21:19:42.891Z,22.98
2017-08-17T21:22:10.808Z,22.94
2017-08-17T21:24:38.776Z,23.01
2017-08-17T21:27:06.686Z,23.08
2017-08-17T21:29:35.001Z,23.11
2017-08-17T21:32:02.912Z,23.02
2017-08-17T21:34:31.224Z,23.02
2017-08-17T21:36:59.139Z,23.14
2017-08-17T21:39:27.065Z,23.14
2017-08-17T21:41:54.979Z,23.14
2017-08-17T21:44:22.901Z,23.06
2017-08-17T21:46:50.803Z,23.18
2017-08-17T21:49:18.728Z,23.12
2017-08-17T21:51:46.639Z,23.00
2017-08-17T21:54:14.544Z,22.89
2017-08-17T21:56:42.852Z,22.98
2017-08-17T21:59:10.762Z,23.00
2017-08-17T22:01:38.672Z,22.95
2017-08-17T22:04:06.588Z,22.89
2017-08-17T22:06:34.503Z,22.91
2017-08-17T22:09:02.808Z,22.80
2017-08-17T22:11:30.961Z,22.73
2017-08-17T22:13:59.303Z,22.79
2017-08-17T22:16:27.220Z,22.77
2017-08-17T22:18:55.140Z,22.77
2017-08-17T22:21:23.050Z,22.68
2017-08-17T22:23:50.962Z,22.64
2017-08-17T22:26:18.870Z,22.59
2017-08-17T22:28:47.184Z,22.58
2017-08-17T22:31:15.092Z,22.47
2017-08-17T22:33:43.002Z,22.37
2017-08-17T22:36:10.916Z,22.32
2017-08-17T22:38:38.836Z,22.24
2017-08-17T22:41:07.137Z,22.14
2017-08-17T22:43:35.454Z,22.10
2017-08-17T22:46:03.369Z,21.90
2017-08-17T22:48:31.285Z,21.94
2017-08-17T22:50:59.224Z,21.86
2017-08-17T22:53:27.118Z,21.77
2017-08-17T22:55:55.037Z,21.73
2017-08-17T22:58:22.952Z,21.70
2017-08-17T23:00:50.893Z,21.64
2017-08-17T23:03:18.808Z,21.58
2017-08-17T23:05:46.723Z,21.57
2017-08-17T23:08:14.623Z,21.55
2017-08-17T23:10:42.712Z,21.52
2017-08-17T23:13:10.624Z,21.41
2017-08-17T23:15:38.527Z,21.38
2017-08-17T23:18:06.440Z,21.45
2017-08-17T23:20:34.744Z,21.31
2017-08-17T23:23:02.728Z,21.32
2017-08-17T23:25:30.744Z,21.26
2017-08-17T23:27:58.662Z,21.20
2017-08-17T23:30:26.555Z,21.19
2017-08-17T23:32:54.468Z,21.15
2017-08-17T23:35:22.773Z,21.14
2017-08-17T23:37:50.886Z,21.16
2017-08-17T23:40:18.787Z,21.25
2017-08-17T23:42:47.087Z,21.35
2017-08-17T23:45:15.007Z,21.30
2017-08-17T23:47:42.983Z,21.40
2017-08-17T23:50:10.905Z,21.41
2017-08-17T23:52:38.820Z,21.38
2017-08-17T23:55:06.726Z,21.35
2017-08-17T23:57:34.636Z,21.42
